Time;durP1;ratioP1;P1;durP2;ratioP2;P2;SDS_P1;SDS_P2;PMS_P1;PMS_P2;Temp;Humidity;BMP_temperature;BMP_pressure;BME280_temperature;BME280_humidity;BME280_pressure;Samples;Min_cycle;Max_cycle;Signal;HPM_P1;HPM_P2
2023/04/13 00:02:05;;;;;;;4.45;1.65;;;;;;;9.88;50.47;98562.94;4949689;28;20042;-94
2023/04/13 00:04:31;;;;;;;4.78;1.92;;;;;;;9.80;50.83;98560.88;4950002;28;20038;-92
2023/04/13 00:06:57;;;;;;;3.15;1.80;;;;;;;9.80;50.83;98567.03;4949577;28;20042;-93
2023/04/13 00:09:24;;;;;;;2.65;1.60;;;;;;;9.78;50.58;98579.97;4948986;28;20037;-93
2023/04/13 00:11:50;;;;;;;3.92;1.80;;;;;;;9.71;50.80;98563.34;4949825;28;20034;-92
2023/04/13 00:14:17;;;;;;;4.22;2.13;;;;;;;9.68;50.72;98562.03;4949050;28;20085;-92
2023/04/13 00:16:45;;;;;;;3.08;1.83;;;;;;;9.65;50.47;98568.00;4949745;28;20045;-92
2023/04/13 00:19:11;;;;;;;4.85;1.77;;;;;;;9.62;50.93;98559.69;4948937;28;20042;-93
2023/04/13 00:21:40;;;;;;;2.75;2.00;;;;;;;9.50;51.57;98550.13;4948331;28;20038;-92
2023/04/13 00:24:06;;;;;;;2.60;1.90;;;;;;;9.55;51.95;98562.69;4949629;28;20034;-94
2023/04/13 00:26:32;;;;;;;3.17;1.88;;;;;;;9.42;51.96;98545.34;4949026;28;20030;-92
2023/04/13 00:28:57;;;;;;;2.90;1.85;;;;;;;9.45;52.05;98562.78;4947939;28;20038;-90
2023/04/13 00:31:23;;;;;;;3.15;1.90;;;;;;;9.38;52.01;98556.91;4947665;28;20120;-93
2023/04/13 00:33:48;;;;;;;3.80;2.17;;;;;;;9.42;52.10;98566.84;4948217;28;20034;-93
2023/04/13 00:36:14;;;;;;;3.75;2.00;;;;;;;9.31;52.40;98565.28;4948924;28;20054;-93
2023/04/13 00:38:43;;;;;;;2.90;1.95;;;;;;;9.37;52.44;98576.81;4948466;28;20117;-93
2023/04/13 00:41:11;;;;;;;4.65;2.13;;;;;;;9.23;52.75;98555.13;4949383;28;20471;-93
2023/04/13 00:43:37;;;;;;;6.78;1.92;;;;;;;9.30;52.83;98575.25;4948799;28;20037;-92
2023/04/13 00:46:04;;;;;;;3.58;2.13;;;;;;;9.15;52.69;98563.78;4948082;28;20038;-93
2023/04/13 00:48:29;;;;;;;3.53;2.22;;;;;;;9.09;53.07;98568.41;4947923;28;20437;-93
2023/04/13 00:50:55;;;;;;;4.72;2.47;;;;;;;9.10;53.40;98580.75;4947985;28;20069;-93
2023/04/13 00:53:21;;;;;;;5.28;2.20;;;;;;;8.97;53.39;98579.47;4947818;28;20042;-93
2023/04/13 00:55:47;;;;;;;3.63;2.17;;;;;;;8.95;53.33;98586.22;4964291;28;20034;-93
2023/04/13 00:58:12;;;;;;;3.63;2.38;;;;;;;8.98;53.78;98602.56;4947537;28;20113;-93
2023/04/13 01:00:38;;;;;;;3.05;2.00;;;;;;;8.86;53.00;98576.06;4947483;28;20069;-93
2023/04/13 01:03:03;;;;;;;5.25;1.90;;;;;;;8.86;52.65;98589.47;4949023;28;20035;-93
2023/04/13 01:05:36;;;;;;;3.13;1.90;;;;;;;8.83;53.45;98583.84;4948565;28;20026;-94
2023/04/13 01:08:19;;;;;;;8.18;2.70;;;;;;;8.70;55.33;98602.16;4948783;28;20034;-93
2023/04/13 01:10:53;;;;;;;4.25;2.47;;;;;;;8.63;56.38;98603.53;4948749;28;20623;-92
2023/04/13 01:13:54;;;;;;;3.80;2.22;;;;;;;8.55;56.25;98593.34;4963547;28;20034;-93
2023/04/13 01:16:40;;;;;;;2.97;2.07;;;;;;;8.49;56.64;98609.47;4965030;28;20040;-92
2023/04/13 01:19:05;;;;;;;4.18;2.35;;;;;;;8.56;56.05;98594.97;4949109;28;20030;-93
2023/04/13 01:21:31;;;;;;;4.53;2.10;;;;;;;8.54;56.21;98600.59;4947458;28;20485;-93
2023/04/13 01:24:20;;;;;;;2.08;1.80;;;;;;;8.60;56.55;98617.50;4948229;28;20038;-93
2023/04/13 01:26:52;;;;;;;3.42;2.30;;;;;;;8.47;56.35;98611.63;4963820;28;20045;-93
2023/04/13 01:29:18;;;;;;;4.38;2.47;;;;;;;8.48;56.00;98607.88;4964235;28;20503;-93
2023/04/13 01:31:44;;;;;;;4.95;2.35;;;;;;;8.43;55.88;98605.22;4947839;28;20050;-92
2023/04/13 01:34:09;;;;;;;5.57;2.90;;;;;;;8.48;56.09;98612.44;4948181;28;20042;-94
2023/04/13 01:36:34;;;;;;;7.50;3.97;;;;;;;8.39;56.71;98600.63;4948895;28;20477;-93
2023/04/13 01:39:00;;;;;;;7.50;4.15;;;;;;;8.40;56.68;98596.88;4948218;28;20563;-92
2023/04/13 01:41:26;;;;;;;9.60;4.40;;;;;;;8.42;56.26;98606.28;4948819;28;20420;-93
2023/04/13 01:43:52;;;;;;;13.75;4.93;;;;;;;8.42;56.55;98611.63;4948083;28;20503;-92
2023/04/13 01:46:18;;;;;;;13.55;5.28;;;;;;;8.37;56.66;98608.16;4948862;28;20489;-93
2023/04/13 01:48:48;;;;;;;8.45;4.15;;;;;;;8.34;57.28;98611.38;4948540;28;20049;-93
2023/04/13 01:51:23;;;;;;;7.30;3.85;;;;;;;8.36;57.53;98606.53;4949150;28;20034;-93
2023/04/13 01:53:55;;;;;;;8.65;3.90;;;;;;;8.16;58.03;98597.47;4948494;28;20042;-92
2023/04/13 01:56:25;;;;;;;8.88;4.55;;;;;;;8.18;58.42;98605.25;4948159;28;20038;-93
2023/04/13 01:58:55;;;;;;;9.10;4.35;;;;;;;8.12;58.57;98617.06;4949117;28;20146;-93
2023/04/13 02:01:20;;;;;;;5.68;3.20;;;;;;;7.80;59.17;98608.25;4948486;28;20098;-92
2023/04/13 02:03:47;;;;;;;5.40;2.80;;;;;;;7.71;59.13;98603.69;4947199;28;20061;-92
2023/04/13 02:06:13;;;;;;;3.42;2.25;;;;;;;7.66;59.58;98613.34;4947603;28;20038;-92
2023/04/13 02:08:39;;;;;;;6.63;2.65;;;;;;;7.57;59.39;98598.84;4947466;28;20452;-92
2023/04/13 02:11:06;;;;;;;6.30;2.58;;;;;;;7.76;59.58;98631.31;4947876;28;20080;-90
2023/04/13 02:13:32;;;;;;;4.65;2.63;;;;;;;7.76;59.75;98617.06;4948554;28;20041;-91
2023/04/13 02:15:57;;;;;;;6.53;3.13;;;;;;;7.72;60.02;98603.44;4947913;28;20039;-91
2023/04/13 02:18:23;;;;;;;7.45;3.67;;;;;;;7.77;59.90;98613.34;4948058;28;20101;-92
2023/04/13 02:20:58;;;;;;;5.50;3.10;;;;;;;7.73;60.29;98610.38;4948563;28;20526;-93
2023/04/13 02:23:23;;;;;;;7.82;3.47;;;;;;;7.78;60.11;98621.13;4950681;28;20034;-93
2023/04/13 02:25:49;;;;;;;8.23;3.50;;;;;;;7.70;60.28;98610.94;4951460;28;20041;-92
2023/04/13 02:28:16;;;;;;;7.45;2.95;;;;;;;7.67;61.10;98622.97;4950317;28;20038;-92
2023/04/13 02:30:41;;;;;;;4.28;2.72;;;;;;;7.63;61.16;98615.75;4951698;28;20076;-93
2023/04/13 02:33:08;;;;;;;8.07;3.35;;;;;;;7.64;60.69;98623.53;4951404;28;20055;-91
2023/04/13 02:35:37;;;;;;;5.90;3.17;;;;;;;7.69;61.01;98625.38;4951588;28;20066;-92
2023/04/13 02:38:06;;;;;;;4.18;2.72;;;;;;;7.50;61.61;98625.13;4951813;28;20037;-92
2023/04/13 02:40:31;;;;;;;6.63;2.60;;;;;;;7.37;62.21;98615.72;4951368;28;20109;-92
2023/04/13 02:42:58;;;;;;;4.90;2.67;;;;;;;7.20;62.67;98615.16;4950929;28;20461;-93
2023/04/13 02:45:24;;;;;;;3.88;2.53;;;;;;;6.97;63.12;98619.94;4951025;28;20066;-92
2023/04/13 02:47:49;;;;;;;5.22;2.72;;;;;;;6.91;63.49;98622.84;4949985;28;20106;-92
2023/04/13 02:50:16;;;;;;;4.85;2.63;;;;;;;6.84;63.61;98629.25;4967122;28;20042;-92
2023/04/13 02:52:42;;;;;;;3.58;2.28;;;;;;;6.76;63.63;98629.75;4950496;28;20034;-92
2023/04/13 02:55:08;;;;;;;4.80;2.60;;;;;;;6.88;63.65;98633.00;4950725;28;20034;-92
2023/04/13 02:57:33;;;;;;;4.50;2.83;;;;;;;6.95;63.33;98632.78;4951519;28;20023;-92
2023/04/13 02:59:59;;;;;;;5.43;2.47;;;;;;;6.93;62.90;98618.03;4950632;28;20034;-92
2023/04/13 03:02:26;;;;;;;4.30;2.80;;;;;;;6.96;62.86;98612.97;4950394;28;20030;-93
2023/04/13 03:04:52;;;;;;;9.27;3.83;;;;;;;7.00;62.51;98624.75;4962121;28;20034;-93
2023/04/13 03:07:17;;;;;;;8.93;3.95;;;;;;;7.06;62.73;98625.59;4969703;28;20416;-93
2023/04/13 03:09:43;;;;;;;8.00;3.22;;;;;;;6.81;64.21;98634.34;4962928;28;20023;-92
2023/04/13 03:12:09;;;;;;;7.18;3.17;;;;;;;6.67;64.42;98632.13;4959467;28;20073;-94
2023/04/13 03:14:35;;;;;;;8.93;3.45;;;;;;;6.64;64.93;98645.19;4951058;28;20485;-92
2023/04/13 03:17:05;;;;;;;4.45;2.60;;;;;;;6.51;64.94;98638.47;4950572;28;20049;-94
2023/04/13 03:19:31;;;;;;;5.20;2.75;;;;;;;6.53;64.42;98641.69;4950858;28;20098;-92
2023/04/13 03:21:56;;;;;;;5.55;2.63;;;;;;;6.47;65.23;98640.88;4950300;28;20053;-92
2023/04/13 03:24:26;;;;;;;4.93;2.67;;;;;;;6.46;65.62;98657.16;4949545;28;20045;-93
2023/04/13 03:26:55;;;;;;;5.97;3.25;;;;;;;6.36;65.39;98641.06;4952400;28;20042;-93
2023/04/13 03:29:22;;;;;;;7.65;3.53;;;;;;;6.43;65.49;98663.84;4952210;28;20096;-93
2023/04/13 03:31:47;;;;;;;8.00;4.07;;;;;;;6.39;65.27;98645.88;4947113;28;20133;-94
2023/04/13 03:34:12;;;;;;;6.78;4.22;;;;;;;6.47;64.72;98650.75;4949135;28;20045;-95
2023/04/13 03:36:38;;;;;;;7.07;4.28;;;;;;;6.55;64.77;98652.94;4947861;28;20026;-95
2023/04/13 03:39:04;;;;;;;5.63;3.80;;;;;;;6.57;64.95;98648.13;4947547;28;20042;-94
2023/04/13 03:41:29;;;;;;;8.55;3.63;;;;;;;6.68;64.29;98648.97;4947105;28;20035;-94
2023/04/13 03:43:55;;;;;;;6.88;3.70;;;;;;;6.75;64.49;98643.41;4946649;28;20178;-93
2023/04/13 03:46:20;;;;;;;8.07;3.88;;;;;;;6.78;63.73;98642.88;4947949;28;20109;-93
2023/04/13 03:48:46;;;;;;;6.40;3.70;;;;;;;6.84;64.00;98657.88;4947332;28;20034;-94
2023/04/13 03:51:11;;;;;;;7.07;3.80;;;;;;;6.84;64.59;98668.59;4946384;28;20027;-96
2023/04/13 03:53:37;;;;;;;6.47;3.53;;;;;;;6.68;64.79;98657.81;4947600;28;20043;-93
2023/04/13 03:56:03;;;;;;;10.52;3.90;;;;;;;6.65;64.55;98652.97;4946214;28;20042;-94
2023/04/13 03:58:28;;;;;;;15.77;4.50;;;;;;;6.51;65.14;98662.53;4946912;28;20069;-93
2023/04/13 04:00:54;;;;;;;15.77;6.03;;;;;;;6.48;65.78;98666.53;4946913;28;20038;-94
2023/04/13 04:03:21;;;;;;;6.93;3.80;;;;;;;6.35;65.12;98664.34;4948888;28;20031;-94
2023/04/13 04:05:46;;;;;;;11.48;5.72;;;;;;;6.25;65.70;98664.25;4947585;28;20394;-92
2023/04/13 04:08:12;;;;;;;19.05;5.38;;;;;;;6.21;65.33;98679.22;4947663;28;20094;-93
2023/04/13 04:10:37;;;;;;;7.70;4.13;;;;;;;6.15;65.46;98681.03;4946864;28;20047;-93
2023/04/13 04:13:03;;;;;;;9.30;3.47;;;;;;;6.31;64.97;98694.50;4947542;28;20035;-94
2023/04/13 04:15:28;;;;;;;8.20;3.67;;;;;;;6.30;64.73;98685.66;4946132;28;20035;-93
2023/04/13 04:17:54;;;;;;;10.30;4.30;;;;;;;6.33;65.08;98695.88;4947557;28;20030;-93
2023/04/13 04:20:19;;;;;;;7.55;3.90;;;;;;;6.35;65.59;98698.25;4946734;28;20070;-95
2023/04/13 04:22:46;;;;;;;11.02;3.97;;;;;;;6.39;65.19;98692.16;4947732;28;20046;-94
2023/04/13 04:25:20;;;;;;;10.98;4.45;;;;;;;6.60;64.33;98713.66;4947257;28;20047;-93
2023/04/13 04:27:48;;;;;;;8.13;3.80;;;;;;;6.76;62.46;98719.91;4948119;28;20089;-93
2023/04/13 04:30:14;;;;;;;3.58;2.20;;;;;;;6.89;59.78;98703.41;4949093;28;20425;-93
2023/04/13 04:32:40;;;;;;;4.28;3.38;;;;;;;7.01;59.50;98716.56;4960449;28;20054;-92
2023/04/13 04:35:07;;;;;;;3.20;2.10;;;;;;;7.06;58.95;98700.53;4951419;28;20038;-92
2023/04/13 04:37:36;;;;;;;3.72;2.15;;;;;;;7.19;59.16;98708.06;4950289;28;20038;-95
2023/04/13 04:40:08;;;;;;;8.60;3.22;;;;;;;7.24;60.90;98713.44;4956252;28;20555;-96
2023/04/13 04:42:33;;;;;;;;;;;;;;;7.08;62.08;98722.50;4951417;28;20365;-94
2023/04/13 04:45:01;;;;;;;3.08;2.50;;;;;;;6.95;62.14;98730.97;4983112;28;19909;-95
2023/04/13 04:47:29;;;;;;;4.20;2.95;;;;;;;6.86;62.13;98717.28;4954660;28;20039;-94
2023/04/13 04:49:56;;;;;;;5.13;3.05;;;;;;;6.88;61.95;98712.47;4951698;28;20031;-94
2023/04/13 04:52:24;;;;;;;5.90;3.30;;;;;;;7.08;62.10;98715.25;4950934;28;20034;-93
2023/04/13 04:54:50;;;;;;;7.07;2.97;;;;;;;7.18;61.77;98713.66;4983916;28;20042;-94
2023/04/13 04:57:17;;;;;;;11.50;3.45;;;;;;;7.18;61.63;98697.59;4951416;28;20041;-95
2023/04/13 04:59:44;;;;;;;5.32;2.80;;;;;;;7.29;61.19;98694.72;4951522;28;20057;-94
2023/04/13 05:02:09;;;;;;;7.60;3.33;;;;;;;7.54;60.87;98717.28;4966372;28;20117;-95
2023/04/13 05:04:35;;;;;;;4.28;3.15;;;;;;;7.77;58.24;98715.16;4966685;28;20500;-94
2023/04/13 05:07:01;;;;;;;5.28;2.90;;;;;;;7.97;57.01;98711.69;4964289;28;20057;-94
2023/04/13 05:09:27;;;;;;;14.27;7.85;;;;;;;8.05;56.19;98703.09;4968135;28;20068;-93
2023/04/13 05:11:53;;;;;;;11.60;3.90;;;;;;;8.16;55.61;98687.84;4967677;28;20046;-90
2023/04/13 05:14:18;;;;;;;6.88;3.13;;;;;;;8.36;57.32;98711.16;4968594;28;20082;-93
2023/04/13 05:16:45;;;;;;;10.90;3.47;;;;;;;8.04;57.56;98674.72;4968208;28;20041;-95
2023/04/13 05:19:16;;;;;;;4.85;3.10;;;;;;;8.45;57.80;98704.22;4972335;28;20039;-95
2023/04/13 05:21:42;;;;;;;6.93;3.72;;;;;;;8.32;56.77;98686.72;4973800;28;20073;-96
2023/04/13 05:24:10;;;;;;;8.85;4.13;;;;;;;8.46;56.85;98695.88;4968327;28;20042;-94
2023/04/13 05:26:35;;;;;;;6.75;3.70;;;;;;;8.65;55.01;98706.03;4968784;28;20035;-94
2023/04/13 05:29:06;;;;;;;7.82;3.45;;;;;;;8.71;54.45;98688.84;4969240;28;20053;-92
2023/04/13 05:31:34;;;;;;;7.03;3.50;;;;;;;8.80;54.82;98686.38;4976242;28;20062;-96
2023/04/13 05:34:03;;;;;;;5.50;2.72;;;;;;;8.81;53.88;98674.59;4977248;28;20035;-93
2023/04/13 05:36:31;;;;;;;5.53;3.35;;;;;;;9.03;54.14;98695.72;4988435;28;20041;-96
2023/04/13 05:39:00;;;;;;;3.95;2.47;;;;;;;9.01;52.43;98679.09;4954984;28;20034;-92
2023/04/13 05:41:26;;;;;;;5.88;2.30;;;;;;;9.45;51.96;98705.19;4970740;28;20052;-93
2023/04/13 05:43:51;;;;;;;4.22;2.70;;;;;;;9.19;51.25;98680.31;4968177;28;20110;-93
2023/04/13 05:46:17;;;;;;;3.10;2.13;;;;;;;9.23;51.30;98671.44;4952406;28;20045;-95
2023/04/13 05:48:43;;;;;;;7.78;3.00;;;;;;;9.64;51.47;98713.41;4971727;28;20042;-93
2023/04/13 05:51:20;;;;;;;4.07;2.22;;;;;;;9.85;50.76;98706.81;5003657;28;20037;-94
2023/04/13 05:53:51;;;;;;;7.53;2.13;;;;;;;10.03;49.79;98672.25;4949246;28;20506;-92
2023/04/13 05:56:16;;;;;;;4.25;2.10;;;;;;;10.39;48.64;98680.81;4954328;28;20051;-94
2023/04/13 05:58:43;;;;;;;3.63;2.30;;;;;;;10.40;47.52;98676.28;4955174;28;20062;-93
2023/04/13 06:01:11;;;;;;;7.53;4.40;;;;;;;10.57;47.25;98694.66;4953161;28;20046;-93
2023/04/13 06:03:36;;;;;;;2.65;1.90;;;;;;;10.65;45.33;98681.38;4944182;28;20050;-94
2023/04/13 06:06:03;;;;;;;3.00;1.98;;;;;;;10.85;44.48;98693.00;4956605;28;20030;-95
2023/04/13 06:08:34;;;;;;;5.10;2.17;;;;;;;11.02;44.11;98682.56;4949439;29;20125;-96
2023/04/13 06:11:01;;;;;;;5.95;2.53;;;;;;;11.17;43.59;98683.47;4939736;29;20031;-94
2023/04/13 06:13:27;;;;;;;4.22;2.20;;;;;;;11.38;43.26;98702.88;4940963;28;20498;-96
2023/04/13 06:15:59;;;;;;;3.45;2.17;;;;;;;11.45;42.94;98700.59;4943398;29;20043;-95
2023/04/13 06:18:25;;;;;;;3.28;1.90;;;;;;;11.64;43.06;98716.78;4954976;28;20043;-96
2023/04/13 06:20:51;;;;;;;3.60;2.25;;;;;;;11.59;43.26;98700.69;4940063;29;20043;-95
2023/04/13 06:23:20;;;;;;;5.20;2.92;;;;;;;11.66;43.59;98699.25;4953470;29;20062;-95
2023/04/13 06:25:52;;;;;;;5.00;2.40;;;;;;;11.83;42.77;98697.91;4960881;28;20039;-95
2023/04/13 06:28:20;;;;;;;7.15;3.65;;;;;;;11.92;42.37;98699.69;4935526;29;20043;-95
2023/04/13 06:30:49;;;;;;;8.93;4.30;;;;;;;12.05;42.45;98691.94;4958722;28;20086;-95
2023/04/13 06:33:22;;;;;;;9.60;3.28;;;;;;;12.20;43.20;98693.56;5138357;23;20065;-95
2023/04/13 06:35:58;;;;;;;9.43;5.68;;;;;;;12.48;42.55;98711.44;5002423;28;20050;-93
2023/04/13 06:38:24;;;;;;;10.80;4.68;;;;;;;12.69;42.56;98721.88;4997806;28;20042;-94
2023/04/13 06:40:53;;;;;;;6.60;3.38;;;;;;;12.61;42.07;98688.25;4990996;28;20049;-92
2023/04/13 07:06:35;;;;;;;4.82;3.08;;;;;;;13.59;36.30;98726.88;5025794;28;20501;-93
2023/04/13 07:09:10;;;;;;;6.57;3.00;;;;;;;13.57;36.09;98697.41;4977432;28;20129;-96
2023/04/13 07:14:35;;;;;;;6.00;2.97;;;;;;;13.75;35.93;98679.44;5088936;23;19957;-91
2023/04/13 07:17:01;;;;;;;6.13;3.20;;;;;;;13.87;35.51;98685.09;4959065;28;20035;-87
2023/04/13 07:19:32;;;;;;;4.75;2.90;;;;;;;14.15;33.77;98707.44;4937396;28;20509;-90
2023/04/13 07:22:00;;;;;;;7.87;3.17;;;;;;;14.21;33.98;98702.69;4941974;28;20038;-90
2023/04/13 07:24:28;;;;;;;4.07;2.28;;;;;;;14.28;33.14;98702.25;4936907;28;20469;-89
2023/04/13 07:26:56;;;;;;;3.38;2.30;;;;;;;14.34;32.33;98693.69;4939092;28;20034;-89
2023/04/13 07:29:22;;;;;;;4.50;2.10;;;;;;;14.36;30.66;98685.25;4938915;28;20473;-88
2023/04/13 07:31:47;;;;;;;3.53;1.90;;;;;;;14.44;30.81;98686.41;4936040;28;20039;-89
2023/04/13 07:34:16;;;;;;;2.35;1.15;;;;;;;14.70;30.98;98703.63;4940545;28;20112;-90
2023/04/13 07:36:41;;;;;;;13.45;7.28;;;;;;;14.73;30.67;98689.47;4937098;28;20027;-90
2023/04/13 07:39:08;;;;;;;2.70;1.70;;;;;;;14.80;30.56;98693.63;4935223;28;20046;-88
2023/04/13 07:41:36;;;;;;;3.05;1.45;;;;;;;14.88;29.97;98695.53;4943216;28;20070;-89
2023/04/13 07:44:03;;;;;;;2.00;1.35;;;;;;;14.83;30.59;98685.66;4944479;28;20038;-89
2023/04/13 07:46:29;;;;;;;3.10;1.35;;;;;;;14.99;29.38;98685.25;4942025;28;20047;-90
2023/04/13 07:48:55;;;;;;;2.33;1.20;;;;;;;15.06;29.84;98675.50;4941729;28;20039;-90
2023/04/13 07:51:25;;;;;;;5.95;1.70;;;;;;;15.10;28.65;98673.78;4934920;28;20077;-89
2023/04/13 07:53:57;;;;;;;3.25;1.60;;;;;;;15.12;29.77;98665.31;4959593;28;20035;-90
2023/04/13 07:56:23;;;;;;;3.63;1.70;;;;;;;15.14;28.49;98663.88;4970056;28;20481;-89
2023/04/13 07:58:58;;;;;;;2.20;1.50;;;;;;;15.39;29.47;98675.09;4929732;28;20041;-89
2023/04/13 08:01:25;;;;;;;2.55;1.40;;;;;;;15.39;29.24;98669.69;4955293;28;20042;-89
2023/04/13 08:03:56;;;;;;;5.00;2.42;;;;;;;15.42;28.46;98666.34;4934941;28;20038;-89
2023/04/13 08:06:23;;;;;;;5.83;2.43;;;;;;;15.58;28.52;98680.22;4951607;28;20134;-88
2023/04/13 08:08:48;;;;;;;3.55;1.80;;;;;;;15.59;27.52;98670.97;4949536;28;20035;-89
2023/04/13 08:11:14;;;;;;;4.05;1.90;;;;;;;15.63;28.37;98652.94;4932845;28;20097;-89
2023/04/13 08:13:40;;;;;;;2.63;1.70;;;;;;;15.71;30.41;98643.22;4943083;28;20059;-91
2023/04/13 08:16:08;;;;;;;3.35;1.40;;;;;;;15.81;26.99;98632.03;4953799;28;20045;-93
2023/04/13 08:18:34;;;;;;;3.13;1.42;;;;;;;16.01;27.11;98649.56;4954024;28;20193;-91
2023/04/13 08:21:00;;;;;;;2.70;1.50;;;;;;;16.08;28.17;98646.38;4951857;28;20061;-87
2023/04/13 08:23:26;;;;;;;5.13;1.60;;;;;;;16.01;26.88;98641.44;4954834;28;20034;-88
2023/04/13 08:25:51;;;;;;;3.47;1.27;;;;;;;16.07;26.72;98666.50;4949764;28;20037;-90
2023/04/13 08:28:17;;;;;;;1.95;1.00;;;;;;;15.90;26.29;98646.41;4949179;28;20030;-88
2023/04/13 08:30:43;;;;;;;2.78;1.67;;;;;;;16.07;26.55;98664.59;4949039;28;20390;-88
2023/04/13 08:33:09;;;;;;;2.22;1.45;;;;;;;16.12;26.60;98655.47;4950842;28;20077;-88
2023/04/13 08:35:38;;;;;;;4.93;2.92;;;;;;;16.24;26.37;98660.25;4948848;28;20033;-87
2023/04/13 08:38:07;;;;;;;6.03;3.95;;;;;;;16.09;26.63;98621.59;4949451;28;20037;-89
2023/04/13 08:40:37;;;;;;;14.38;8.70;;;;;;;16.20;26.85;98648.44;4949665;28;20495;-88
2023/04/13 08:43:03;;;;;;;3.35;2.10;;;;;;;16.32;27.57;98648.56;4949203;28;20046;-89
2023/04/13 08:45:29;;;;;;;2.67;1.75;;;;;;;16.41;28.16;98629.50;4949575;28;20521;-89
2023/04/13 08:47:56;;;;;;;5.38;1.67;;;;;;;16.46;27.19;98648.34;4954262;28;20050;-89
2023/04/13 08:50:22;;;;;;;5.88;1.48;;;;;;;16.63;27.04;98642.84;4950142;28;20066;-89
2023/04/13 08:52:47;;;;;;;2.58;1.30;;;;;;;16.63;27.24;98640.13;4952740;28;20418;-88
2023/04/13 08:55:14;;;;;;;3.42;1.70;;;;;;;16.54;27.47;98623.88;4950984;28;20030;-89
2023/04/13 08:57:40;;;;;;;2.28;1.60;;;;;;;16.69;27.83;98649.69;4950945;28;20424;-89
2023/04/13 09:00:12;;;;;;;8.15;5.47;;;;;;;16.69;28.02;98627.94;4948570;28;20030;-89
2023/04/13 09:02:38;;;;;;;4.45;1.50;;;;;;;17.03;25.94;98649.88;4953556;28;20038;-91
2023/04/13 09:05:12;;;;;;;2.33;1.23;;;;;;;16.93;25.55;98624.66;4951841;28;20034;-88
2023/04/13 09:07:38;;;;;;;4.18;1.38;;;;;;;16.94;26.21;98611.84;4958407;28;20030;-88
2023/04/13 09:10:05;;;;;;;3.40;1.50;;;;;;;16.99;25.44;98638.06;4959151;28;20045;-87
2023/04/13 09:12:33;;;;;;;10.20;2.10;;;;;;;16.77;26.35;98607.28;4952263;28;20042;-87
2023/04/13 09:15:02;;;;;;;2.50;1.23;;;;;;;16.97;25.14;98632.94;4950363;28;20142;-89
2023/04/13 09:17:28;;;;;;;2.60;1.67;;;;;;;16.96;25.63;98636.81;4955245;28;20034;-89
2023/04/13 09:19:57;;;;;;;1.50;1.15;;;;;;;16.93;25.39;98618.41;4971321;28;20489;-88
2023/04/13 09:22:24;;;;;;;1.73;1.23;;;;;;;16.60;26.36;98615.50;4972692;28;20041;-89
2023/04/13 09:24:58;;;;;;;3.08;1.30;;;;;;;16.51;27.10;98616.34;4949200;28;20045;-91
2023/04/13 09:27:30;;;;;;;4.57;1.40;;;;;;;16.63;26.63;98615.66;4956373;28;20049;-92
2023/04/13 09:30:06;;;;;;;4.68;2.00;;;;;;;16.96;26.25;98628.63;4960843;28;20042;-90
2023/04/13 09:32:35;;;;;;;1.83;0.90;;;;;;;17.13;25.13;98642.13;4978277;28;20049;-94
2023/04/13 09:35:04;;;;;;;3.13;1.48;;;;;;;16.99;25.52;98635.34;4975974;28;20034;-94
2023/04/13 09:37:34;;;;;;;7.85;3.67;;;;;;;17.01;26.73;98631.16;4958589;28;20034;-95
2023/04/13 09:40:15;;;;;;;2.63;1.42;;;;;;;17.26;25.92;98629.38;4955645;28;20042;-94
2023/04/13 09:42:42;;;;;;;3.10;1.23;;;;;;;17.15;25.14;98615.38;4959711;28;20042;-94
2023/04/13 09:45:11;;;;;;;10.10;3.15;;;;;;;17.23;26.50;98626.56;4958869;28;20046;-94
2023/04/13 09:47:44;;;;;;;4.35;2.10;;;;;;;17.23;26.13;98597.41;4979271;28;20046;-94
2023/04/13 09:50:27;;;;;;;5.35;2.10;;;;;;;17.51;24.81;98594.16;4992649;28;20049;-95
2023/04/13 09:53:05;;;;;;;4.13;1.73;;;;;;;17.72;23.78;98599.56;4977305;28;20150;-95
2023/04/13 09:55:40;;;;;;;5.45;1.60;;;;;;;17.66;24.40;98569.03;4969749;28;20038;-95
2023/04/13 09:58:16;;;;;;;4.40;2.72;;;;;;;17.82;24.24;98593.69;4990362;28;20038;-92
2023/04/13 10:00:45;;;;;;;5.45;3.95;;;;;;;17.91;25.05;98589.00;4984981;28;20045;-93
2023/04/13 10:03:12;;;;;;;3.03;1.60;;;;;;;17.91;25.88;98590.94;4958780;28;20110;-96
2023/04/13 10:05:41;;;;;;;7.45;1.42;;;;;;;17.92;26.44;98579.69;4973830;28;20065;-94
2023/04/13 10:08:08;;;;;;;3.47;2.60;;;;;;;18.10;25.34;98572.13;4960419;28;20501;-96
2023/04/13 10:10:45;;;;;;;2.67;1.30;;;;;;;18.11;26.01;98567.47;4980259;28;20049;-95
2023/04/13 10:13:16;;;;;;;4.70;0.90;;;;;;;18.03;23.68;98558.25;4974683;28;20134;-96
2023/04/13 10:15:57;;;;;;;3.60;1.00;;;;;;;18.10;23.84;98599.38;4968450;28;20042;-88
2023/04/13 10:18:44;;;;;;;2.17;1.10;;;;;;;18.13;22.77;98603.34;4981277;28;20034;-88
2023/04/13 10:21:10;;;;;;;1.20;0.77;;;;;;;17.95;23.24;98581.75;4992132;28;20058;-89
2023/04/13 10:23:41;;;;;;;2.38;1.00;;;;;;;17.87;22.41;98582.63;4943440;28;20043;-91
2023/04/13 10:26:06;;;;;;;2.33;1.15;;;;;;;17.92;24.05;98597.97;4937109;28;20015;-89
2023/04/13 10:28:46;;;;;;;0.93;0.90;;;;;;;17.88;22.59;98584.22;4971362;28;20543;-90
2023/04/13 10:31:15;;;;;;;1.85;0.80;;;;;;;17.60;23.54;98575.81;4953843;28;20037;-89
2023/04/13 10:33:48;;;;;;;4.82;1.00;;;;;;;17.56;23.77;98569.47;4952225;28;20030;-88
2023/04/13 10:36:16;;;;;;;2.55;0.65;;;;;;;17.58;23.29;98556.31;4953326;28;20038;-88
2023/04/13 10:38:45;;;;;;;1.30;0.90;;;;;;;17.78;23.61;98557.38;4943557;28;20050;-88
2023/04/13 10:41:31;;;;;;;1.55;0.90;;;;;;;17.94;22.75;98576.63;4933425;28;20061;-89
2023/04/13 10:44:07;;;;;;;1.73;1.00;;;;;;;17.90;21.93;98565.59;4966850;28;20035;-89
2023/04/13 10:46:36;;;;;;;1.67;0.93;;;;;;;18.00;21.73;98544.53;4948148;28;20042;-88
2023/04/13 10:49:02;;;;;;;1.52;1.00;;;;;;;18.23;22.10;98547.63;4946797;28;20059;-89
2023/04/13 10:51:40;;;;;;;3.92;1.17;;;;;;;18.33;24.06;98528.09;4964490;28;20031;-89
2023/04/13 10:54:07;;;;;;;2.00;1.00;;;;;;;18.44;23.41;98536.59;4951040;28;20121;-91
2023/04/13 10:56:37;;;;;;;1.98;1.05;;;;;;;18.64;23.40;98562.97;4945572;28;20103;-94
2023/04/13 10:59:12;;;;;;;2.33;1.10;;;;;;;18.45;21.19;98535.47;4972318;28;20034;-91
2023/04/13 11:01:39;;;;;;;3.92;2.30;;;;;;;18.52;21.54;98558.28;4947411;28;20031;-92
2023/04/13 11:04:05;;;;;;;1.90;1.20;;;;;;;18.51;21.29;98536.81;4952609;28;20050;-91
2023/04/13 11:06:37;;;;;;;2.10;1.00;;;;;;;18.44;21.30;98529.22;4954150;28;20042;-90
2023/04/13 11:09:05;;;;;;;1.17;0.80;;;;;;;18.63;20.71;98545.00;4954374;28;20046;-90
2023/04/13 11:11:31;;;;;;;3.70;1.33;;;;;;;18.63;21.28;98539.53;4935192;28;20092;-90
2023/04/13 11:13:57;;;;;;;2.28;0.90;;;;;;;18.60;21.36;98532.06;4941271;28;20133;-89
2023/04/13 11:16:25;;;;;;;2.75;1.00;;;;;;;18.47;21.18;98536.72;4943001;28;20077;-90
2023/04/13 11:19:02;;;;;;;2.38;0.80;;;;;;;18.55;20.22;98526.81;4938232;28;20059;-90
2023/04/13 11:21:30;;;;;;;1.33;0.75;;;;;;;18.63;20.75;98534.09;4952384;28;20034;-89
2023/04/13 11:24:01;;;;;;;1.95;0.90;;;;;;;18.51;21.14;98531.38;4967640;28;20030;-89
2023/04/13 11:26:37;;;;;;;2.03;1.10;;;;;;;18.56;20.91;98517.53;4942083;28;20121;-88
2023/04/13 11:29:03;;;;;;;1.55;1.08;;;;;;;18.53;20.90;98527.19;4955237;28;20031;-91
2023/04/13 11:31:36;;;;;;;2.72;0.90;;;;;;;18.61;21.28;98532.84;4943591;28;20043;-90
2023/04/13 11:34:04;;;;;;;1.20;0.68;;;;;;;18.57;21.16;98527.28;4973607;28;20035;-90
2023/04/13 11:36:31;;;;;;;1.67;0.80;;;;;;;18.45;20.88;98517.19;4937767;28;20125;-89
2023/04/13 11:38:59;;;;;;;1.35;0.90;;;;;;;18.47;20.52;98525.00;4948933;28;20031;-90
2023/04/13 11:41:27;;;;;;;1.08;0.80;;;;;;;18.65;21.13;98504.53;4936364;28;20034;-88
2023/04/13 11:43:56;;;;;;;1.67;0.65;;;;;;;18.78;20.63;98513.53;4949847;28;20062;-90
2023/04/13 11:46:23;;;;;;;1.00;0.80;;;;;;;18.76;20.67;98504.88;4952141;28;20038;-87
2023/04/13 11:48:51;;;;;;;1.83;0.80;;;;;;;18.65;20.55;98492.84;4950591;28;20170;-90
2023/04/13 11:51:18;;;;;;;2.85;1.35;;;;;;;18.76;21.72;98502.94;4948018;28;20035;-89
2023/04/13 11:53:47;;;;;;;2.65;1.52;;;;;;;18.91;22.10;98503.41;4947575;28;20027;-90
2023/04/13 11:56:13;;;;;;;3.58;1.00;;;;;;;18.90;21.06;98493.63;4952591;28;20054;-88
2023/04/13 11:58:39;;;;;;;3.00;1.05;;;;;;;19.03;20.72;98495.19;4948427;28;20038;-88
2023/04/13 12:01:09;;;;;;;2.78;1.10;;;;;;;19.04;20.59;98504.94;4950360;28;20061;-88
2023/04/13 12:03:35;;;;;;;1.35;0.77;;;;;;;18.97;19.91;98518.38;4932085;28;20043;-89
2023/04/13 12:06:01;;;;;;;2.72;0.82;;;;;;;18.91;21.10;98493.28;4951290;28;20492;-88
2023/04/13 12:08:28;;;;;;;2.78;1.00;;;;;;;19.00;20.25;98490.41;4980236;28;20081;-88